createdAt,value
2022-11-05T00:02:15.974Z,9.35
2022-11-05T00:05:04.411Z,4.68
2022-11-05T00:07:56.705Z,5.18
2022-11-05T00:10:35.468Z,2.03
2022-11-05T00:13:27.770Z,7.60
2022-11-05T00:16:28.972Z,6.05
2022-11-05T00:19:07.630Z,5.60
2022-11-05T00:21:56.411Z,6.22
2022-11-05T00:24:43.621Z,2.60
2022-11-05T00:27:14.245Z,6.95
2022-11-05T00:29:43.300Z,5.90
2022-11-05T00:32:11.972Z,5.00
2022-11-05T00:34:41.168Z,3.97
2022-11-05T00:37:09.864Z,5.60
2022-11-05T00:39:38.950Z,6.00
2022-11-05T00:42:24.902Z,5.95
2022-11-05T00:45:02.102Z,5.10
2022-11-05T00:47:52.908Z,5.10
2022-11-05T00:50:24.154Z,5.70
2022-11-05T00:52:58.032Z,4.10
2022-11-05T00:55:35.284Z,3.78
2022-11-05T00:58:06.737Z,2.85
2022-11-05T01:00:40.883Z,3.55
2022-11-05T01:03:20.170Z,5.90
2022-11-05T01:05:51.657Z,3.30
2022-11-05T01:08:23.733Z,5.63
2022-11-05T01:10:56.276Z,2.97
2022-11-05T01:13:29.648Z,6.03
2022-11-05T01:16:05.727Z,3.23
2022-11-05T01:18:34.513Z,4.05
2022-11-05T01:21:12.783Z,6.25
2022-11-05T01:23:41.518Z,3.75
2022-11-05T01:26:10.531Z,4.30
2022-11-05T01:28:39.345Z,5.10
2022-11-05T01:31:09.586Z,3.20
2022-11-05T01:33:38.297Z,3.08
2022-11-05T01:36:07.874Z,4.10
2022-11-05T01:38:36.560Z,3.22
2022-11-05T01:41:05.503Z,4.00
2022-11-05T01:43:49.770Z,2.65
2022-11-05T01:46:26.595Z,3.63
2022-11-05T01:49:03.272Z,4.00
2022-11-05T01:51:33.403Z,3.60
2022-11-05T01:54:08.161Z,3.30
2022-11-05T01:56:42.662Z,3.92
2022-11-05T01:59:17.628Z,4.05
2022-11-05T02:01:48.234Z,2.88
2022-11-05T02:04:25.518Z,3.10
2022-11-05T02:06:58.422Z,2.23
2022-11-05T02:09:33.244Z,3.30
2022-11-05T02:12:02.963Z,4.57
2022-11-05T02:14:34.322Z,4.28
2022-11-05T02:17:15.036Z,3.05
2022-11-05T02:20:20.358Z,4.37
2022-11-05T02:23:45.945Z,2.95
2022-11-05T02:27:05.545Z,3.00
2022-11-05T02:30:19.892Z,2.33
2022-11-05T02:33:25.051Z,2.58
2022-11-05T02:36:10.312Z,1.80
2022-11-05T02:38:48.864Z,3.05
2022-11-05T02:41:31.615Z,3.75
2022-11-05T02:44:16.017Z,3.83
2022-11-05T02:46:59.787Z,1.48
2022-11-05T02:49:45.927Z,5.97
2022-11-05T02:52:26.650Z,3.65
2022-11-05T02:55:04.799Z,4.30
2022-11-05T02:57:37.936Z,2.78
2022-11-05T03:00:25.193Z,2.42
2022-11-05T03:02:55.196Z,1.50
2022-11-05T03:05:47.222Z,2.25
2022-11-05T03:08:33.245Z,1.75
2022-11-05T03:11:15.486Z,1.67
2022-11-05T03:13:55.436Z,1.80
2022-11-05T03:16:37.293Z,3.00
2022-11-05T03:19:22.352Z,1.33
2022-11-05T03:22:24.293Z,1.70
2022-11-05T03:25:10.726Z,12.23
2022-11-05T03:27:44.366Z,8.85
2022-11-05T03:30:20.387Z,1.80
2022-11-05T03:33:05.921Z,2.58
2022-11-05T03:35:41.581Z,1.70
2022-11-05T03:38:18.394Z,2.15
2022-11-05T03:41:17.221Z,2.83
2022-11-05T03:43:51.609Z,1.03
2022-11-05T03:46:29.631Z,1.60
2022-11-05T03:49:04.159Z,2.80
2022-11-05T03:51:45.351Z,1.60
2022-11-05T03:54:16.162Z,2.03
2022-11-05T03:56:57.118Z,1.90
2022-11-05T03:59:26.803Z,5.30
2022-11-05T04:01:58.961Z,2.28
2022-11-05T04:04:32.027Z,2.75
2022-11-05T04:07:18.218Z,2.17
2022-11-05T04:13:28.647Z,1.65
2022-11-05T04:16:15.916Z,3.33
2022-11-05T04:18:46.651Z,1.95
2022-11-05T04:21:34.099Z,1.70
2022-11-05T04:24:12.900Z,2.77
2022-11-05T04:26:47.553Z,1.42
2022-11-05T04:29:35.518Z,3.58
2022-11-05T04:32:06.129Z,2.95
2022-11-05T04:34:34.882Z,5.38
2022-11-05T04:37:06.302Z,9.77
2022-11-05T04:39:38.640Z,5.13
2022-11-05T04:42:37.706Z,2.05
2022-11-05T04:45:18.017Z,3.22
2022-11-05T04:48:14.161Z,5.78
2022-11-05T04:50:43.459Z,6.70
2022-11-05T04:53:15.114Z,4.65
2022-11-05T04:55:45.402Z,16.10
2022-11-05T04:58:20.173Z,17.92
2022-11-05T05:00:51.223Z,6.63
2022-11-05T05:03:20.026Z,8.07
2022-11-05T05:05:51.836Z,6.68
2022-11-05T05:08:22.550Z,3.83
2022-11-05T05:10:53.497Z,8.52
2022-11-05T05:13:23.886Z,4.82
2022-11-05T05:15:55.525Z,9.53
2022-11-05T05:21:36.463Z,9.43
2022-11-05T05:24:08.808Z,9.25
2022-11-05T05:26:47.972Z,8.80
2022-11-05T05:29:19.338Z,5.43
2022-11-05T05:31:48.499Z,10.02
2022-11-05T05:34:25.767Z,9.65
2022-11-05T05:37:28.289Z,9.73
2022-11-05T05:39:59.642Z,10.13
2022-11-05T05:42:28.636Z,13.43
2022-11-05T05:45:03.996Z,9.65
2022-11-05T05:47:33.293Z,10.25
2022-11-05T05:50:02.982Z,8.65
2022-11-05T05:52:43.572Z,11.88
2022-11-05T05:55:17.228Z,23.70
2022-11-05T05:57:50.271Z,13.38
2022-11-05T06:00:24.127Z,13.38
2022-11-05T06:02:56.409Z,13.13
2022-11-05T06:05:27.220Z,16.35
2022-11-05T06:08:03.257Z,13.03
2022-11-05T06:10:32.563Z,15.07
2022-11-05T06:13:14.591Z,12.25
2022-11-05T06:15:45.023Z,14.82
2022-11-05T06:18:13.634Z,10.85
2022-11-05T06:20:42.347Z,14.17
2022-11-05T06:23:13.094Z,69.50
2022-11-05T06:25:49.214Z,77.53
2022-11-05T06:28:21.061Z,25.92
2022-11-05T06:31:06.817Z,11.85
2022-11-05T06:33:35.840Z,13.97
2022-11-05T06:36:07.789Z,21.83
2022-11-05T06:38:38.804Z,17.98
2022-11-05T06:41:10.545Z,13.88
2022-11-05T06:43:40.164Z,14.27
2022-11-05T06:46:12.454Z,18.87
2022-11-05T06:48:41.812Z,14.57
2022-11-05T06:51:11.171Z,18.30
2022-11-05T06:53:39.966Z,18.88
2022-11-05T06:56:10.268Z,37.83
2022-11-05T06:58:39.322Z,16.50
2022-11-05T07:01:11.906Z,17.15
2022-11-05T07:03:40.905Z,16.00
2022-11-05T07:06:09.916Z,21.40
2022-11-05T07:08:39.725Z,16.20
2022-11-05T07:11:08.467Z,15.60
2022-11-05T07:13:37.350Z,16.65
2022-11-05T07:16:06.894Z,14.75
2022-11-05T07:18:37.124Z,17.95
2022-11-05T07:21:06.228Z,18.50
2022-11-05T07:23:34.911Z,17.73
2022-11-05T07:26:03.982Z,17.38
2022-11-05T07:28:32.710Z,20.27
2022-11-05T07:31:01.398Z,16.20
2022-11-05T07:33:36.150Z,15.98
2022-11-05T07:36:07.853Z,14.20
2022-11-05T07:38:36.692Z,13.63
2022-11-05T07:41:05.753Z,16.98
2022-11-05T07:43:34.418Z,11.65
2022-11-05T07:46:03.166Z,13.50
2022-11-05T07:48:31.732Z,18.10
2022-11-05T07:51:00.359Z,33.95
2022-11-05T07:53:30.475Z,14.55
2022-11-05T07:55:59.499Z,15.63
2022-11-05T07:58:28.364Z,12.75
2022-11-05T08:00:58.990Z,13.97
2022-11-05T08:03:27.869Z,15.02
2022-11-05T08:05:56.935Z,15.35
2022-11-05T08:08:25.689Z,15.23
2022-11-05T08:10:56.057Z,13.88
2022-11-05T08:13:25.060Z,12.80
2022-11-05T08:15:54.035Z,14.30
2022-11-05T08:18:22.881Z,12.48
2022-11-05T08:20:51.708Z,17.17
2022-11-05T08:23:20.462Z,32.08
2022-11-05T08:25:49.304Z,13.50
2022-11-05T08:28:22.154Z,26.42
2022-11-05T08:30:52.221Z,11.45
2022-11-05T08:33:22.347Z,14.35
2022-11-05T08:35:51.926Z,10.13
2022-11-05T08:38:21.714Z,13.27
2022-11-05T08:40:57.652Z,12.02
2022-11-05T08:43:27.982Z,11.50
2022-11-05T08:45:56.983Z,11.05
2022-11-05T08:48:25.723Z,13.40
2022-11-05T08:50:54.681Z,11.83
2022-11-05T08:53:23.478Z,9.07
2022-11-05T08:55:55.370Z,10.15
2022-11-05T08:58:24.295Z,7.20
2022-11-05T09:00:56.075Z,9.15
2022-11-05T09:03:27.868Z,8.27
2022-11-05T09:05:56.787Z,9.90
2022-11-05T09:08:25.549Z,9.25
2022-11-05T09:10:54.527Z,7.65
2022-11-05T09:13:23.824Z,9.05
2022-11-05T09:15:54.620Z,8.77
2022-11-05T09:18:23.455Z,7.35
2022-11-05T09:20:52.978Z,3.83
2022-11-05T09:23:22.454Z,5.53
2022-11-05T09:25:53.167Z,6.90
2022-11-05T09:28:24.718Z,8.03
2022-11-05T09:30:55.351Z,6.35
2022-11-05T09:33:28.160Z,6.53
2022-11-05T09:36:00.480Z,6.63
2022-11-05T09:38:35.010Z,5.85
2022-11-05T09:41:08.878Z,7.57
2022-11-05T09:43:43.345Z,8.63
2022-11-05T09:46:23.636Z,9.35
2022-11-05T09:48:58.908Z,4.45
2022-11-05T09:51:27.753Z,6.07
2022-11-05T09:54:00.692Z,7.40
2022-11-05T09:56:35.240Z,8.02
2022-11-05T09:59:14.917Z,7.18
2022-11-05T10:01:46.188Z,6.03
2022-11-05T10:04:20.058Z,13.43
2022-11-05T10:06:55.508Z,6.00
2022-11-05T10:09:32.598Z,6.90
2022-11-05T10:12:08.963Z,6.85
2022-11-05T10:14:44.268Z,5.43
2022-11-05T10:17:24.569Z,6.15
2022-11-05T10:20:01.160Z,5.77
2022-11-05T10:22:30.408Z,13.57
2022-11-05T10:24:59.476Z,5.47
2022-11-05T10:27:34.797Z,8.13
2022-11-05T10:30:03.793Z,5.80
2022-11-05T10:32:39.713Z,7.07
2022-11-05T10:35:14.535Z,34.88
2022-11-05T10:37:43.429Z,41.70
2022-11-05T10:40:21.088Z,5.88
2022-11-05T10:43:03.548Z,6.10
2022-11-05T10:45:47.882Z,6.17
2022-11-05T10:49:07.944Z,6.97
2022-11-05T10:51:37.419Z,9.65
2022-11-05T10:54:17.627Z,5.40
2022-11-05T10:56:46.758Z,7.40
2022-11-05T10:59:24.376Z,5.83
2022-11-05T11:02:03.350Z,4.95
2022-11-05T11:04:37.918Z,3.63
2022-11-05T11:07:23.574Z,6.47
2022-11-05T11:09:54.205Z,5.93
2022-11-05T11:12:27.663Z,7.00
2022-11-05T11:15:04.171Z,7.65
2022-11-05T11:17:34.475Z,8.05
2022-11-05T11:20:23.765Z,6.40
2022-11-05T11:23:13.972Z,6.38
2022-11-05T11:25:54.014Z,5.67
2022-11-05T11:28:26.922Z,6.15
2022-11-05T11:31:06.162Z,5.10
2022-11-05T11:33:37.934Z,6.53
2022-11-05T11:36:11.952Z,9.85
2022-11-05T11:38:41.993Z,6.33
2022-11-05T11:41:28.084Z,6.32
2022-11-05T11:44:02.607Z,7.07
2022-11-05T11:46:35.447Z,7.75
2022-11-05T11:49:07.170Z,4.50
2022-11-05T11:51:40.886Z,8.37
2022-11-05T11:54:29.300Z,5.88
2022-11-05T11:56:58.538Z,4.85
2022-11-05T12:00:01.869Z,4.80
2022-11-05T12:03:01.899Z,7.00
2022-11-05T12:05:42.008Z,7.30
2022-11-05T12:08:52.257Z,16.83
2022-11-05T12:11:30.768Z,6.28
2022-11-05T12:14:23.119Z,6.60
2022-11-05T12:17:20.248Z,5.90
2022-11-05T12:20:11.023Z,6.97
2022-11-05T12:23:08.697Z,5.10
2022-11-05T12:25:50.449Z,5.45
2022-11-05T12:29:17.738Z,4.68
2022-11-05T12:32:04.217Z,5.20
2022-11-05T12:34:52.870Z,5.97
2022-11-05T12:37:35.131Z,5.32
2022-11-05T12:40:38.560Z,4.53
2022-11-05T12:43:26.664Z,6.22
2022-11-05T12:46:10.484Z,5.20
2022-11-05T12:49:02.757Z,6.10
2022-11-05T12:51:56.764Z,7.50
2022-11-05T12:54:50.650Z,3.97
2022-11-05T12:57:21.389Z,6.60
2022-11-05T12:59:59.479Z,8.13
2022-11-05T13:02:40.295Z,5.60
2022-11-05T13:05:21.516Z,4.68
2022-11-05T13:08:00.891Z,6.10
2022-11-05T13:10:36.603Z,11.82
2022-11-05T13:13:17.783Z,6.35
2022-11-05T13:15:55.086Z,15.23
2022-11-05T13:18:41.049Z,6.55
2022-11-05T13:21:14.929Z,8.90
2022-11-05T13:23:53.988Z,7.05
2022-11-05T13:26:34.566Z,5.35
2022-11-05T13:29:11.658Z,4.43
2022-11-05T13:31:50.089Z,8.18
2022-11-05T13:34:18.931Z,5.07
2022-11-05T13:37:12.324Z,5.03
2022-11-05T13:39:51.062Z,4.32
2022-11-05T13:42:55.771Z,5.27
2022-11-05T13:46:09.745Z,27.33
2022-11-05T13:49:40.216Z,6.43
2022-11-05T13:52:46.172Z,3.92
2022-11-05T13:55:58.442Z,6.15
2022-11-05T13:59:18.146Z,6.40
2022-11-05T14:01:52.043Z,4.15
2022-11-05T14:04:32.660Z,5.65
2022-11-05T14:07:12.352Z,5.35
2022-11-05T14:09:43.907Z,6.30
2022-11-05T14:12:25.824Z,3.03
2022-11-05T14:15:02.242Z,5.25
2022-11-05T14:17:56.790Z,7.03
2022-11-05T14:20:43.820Z,5.57
2022-11-05T14:23:52.445Z,6.15
2022-11-05T14:26:24.983Z,5.20
2022-11-05T14:29:26.617Z,5.45
2022-11-05T14:32:24.906Z,5.88
2022-11-05T14:35:02.406Z,7.03
2022-11-05T14:37:37.649Z,7.18
2022-11-05T14:40:36.357Z,6.43
2022-11-05T14:43:17.417Z,4.68
2022-11-05T14:45:58.438Z,6.05
2022-11-05T14:48:40.769Z,6.85
2022-11-05T14:51:27.763Z,2.53
2022-11-05T14:54:06.055Z,9.17
2022-11-05T14:56:53.211Z,2.75
2022-11-05T14:59:56.982Z,5.30
2022-11-05T15:02:33.838Z,4.30
2022-11-05T15:05:41.488Z,4.93
2022-11-05T15:08:38.654Z,4.80
2022-11-05T15:11:24.478Z,4.40
2022-11-05T15:14:05.799Z,4.82
2022-11-05T15:16:42.326Z,4.07
2022-11-05T15:19:21.697Z,3.55
2022-11-05T15:21:52.518Z,3.17
2022-11-05T15:24:23.021Z,3.80
2022-11-05T15:27:04.884Z,4.10
2022-11-05T15:29:34.904Z,3.03
2022-11-05T15:32:04.006Z,5.25
2022-11-05T15:34:35.812Z,4.57
2022-11-05T15:37:27.236Z,6.18
2022-11-05T15:39:57.821Z,6.35
2022-11-05T15:42:29.279Z,7.38
2022-11-05T15:45:00.270Z,6.38
2022-11-05T15:47:31.310Z,6.93
2022-11-05T15:50:02.622Z,6.05
2022-11-05T15:52:36.646Z,4.28
2022-11-05T15:55:19.213Z,4.85
2022-11-05T15:57:52.764Z,6.00
2022-11-05T16:00:25.432Z,6.50
2022-11-05T16:02:59.397Z,3.08
2022-11-05T16:05:34.362Z,8.25
2022-11-05T16:08:05.444Z,6.63
2022-11-05T16:10:38.127Z,5.60
2022-11-05T16:13:36.052Z,3.70
2022-11-05T16:16:08.198Z,6.93
2022-11-05T16:18:39.074Z,4.80
2022-11-05T16:21:11.060Z,6.72
2022-11-05T16:23:46.857Z,7.22
2022-11-05T16:29:33.572Z,5.00
2022-11-05T16:32:05.911Z,5.35
2022-11-05T16:34:40.648Z,7.40
2022-11-05T16:37:16.371Z,5.40
2022-11-05T16:39:45.504Z,8.17
2022-11-05T16:42:41.676Z,3.78
2022-11-05T16:45:15.166Z,6.57
2022-11-05T16:47:46.379Z,6.22
2022-11-05T16:50:24.045Z,5.32
2022-11-05T16:52:54.099Z,4.47
2022-11-05T16:55:23.407Z,4.43
2022-11-05T16:57:56.260Z,6.35
2022-11-05T17:00:27.029Z,6.47
2022-11-05T17:02:56.612Z,7.30
2022-11-05T17:05:29.346Z,6.00
2022-11-05T17:08:00.833Z,5.93
2022-11-05T17:10:31.530Z,4.95
2022-11-05T17:13:00.717Z,5.05
2022-11-05T17:15:35.830Z,5.90
2022-11-05T17:18:08.014Z,6.70
2022-11-05T17:20:41.765Z,7.05
2022-11-05T17:23:12.659Z,6.22
2022-11-05T17:25:42.745Z,5.45
2022-11-05T17:28:16.796Z,5.68
2022-11-05T17:30:52.940Z,5.67
2022-11-05T17:33:25.192Z,3.03
2022-11-05T17:35:55.657Z,6.22
2022-11-05T17:38:29.012Z,5.20
2022-11-05T17:40:58.244Z,4.95
2022-11-05T17:43:27.685Z,3.33
2022-11-05T17:46:04.311Z,5.53
2022-11-05T17:48:34.183Z,5.55
2022-11-05T17:51:03.449Z,5.30
2022-11-05T17:53:34.260Z,4.28
2022-11-05T17:56:06.768Z,3.43
2022-11-05T17:58:36.291Z,3.80
2022-11-05T18:01:08.398Z,5.03
2022-11-05T18:03:38.120Z,6.13
2022-11-05T18:06:08.802Z,5.80
2022-11-05T18:08:38.380Z,5.97
2022-11-05T18:11:09.493Z,4.57
2022-11-05T18:13:44.107Z,5.50
2022-11-05T18:16:19.565Z,4.40
2022-11-05T18:18:54.213Z,4.65
2022-11-05T18:21:27.506Z,3.90
2022-11-05T18:23:57.246Z,6.57
2022-11-05T18:26:29.001Z,5.90
2022-11-05T18:28:58.226Z,4.57
2022-11-05T18:31:33.940Z,6.00
2022-11-05T18:34:10.923Z,3.57
2022-11-05T18:36:45.956Z,2.95
2022-11-05T18:39:22.218Z,4.57
2022-11-05T18:41:51.993Z,6.10
2022-11-05T18:44:23.124Z,5.78
2022-11-05T18:46:58.422Z,2.90
2022-11-05T18:49:30.365Z,5.00
2022-11-05T18:52:02.474Z,4.95
2022-11-05T18:54:34.237Z,4.30
2022-11-05T18:57:06.186Z,4.03
2022-11-05T18:59:38.805Z,4.10
2022-11-05T19:02:12.827Z,4.00
2022-11-05T19:04:55.320Z,3.25
2022-11-05T19:07:33.531Z,2.78
2022-11-05T19:10:02.838Z,2.67
2022-11-05T19:12:34.578Z,3.87
2022-11-05T19:15:04.087Z,4.43
2022-11-05T19:17:36.536Z,5.30
2022-11-05T19:20:08.076Z,3.58
2022-11-05T19:22:37.785Z,5.38
2022-11-05T19:25:08.854Z,2.77
2022-11-05T19:27:39.557Z,3.53
2022-11-05T19:30:09.957Z,4.18
2022-11-05T19:32:43.922Z,3.72
2022-11-05T19:35:13.021Z,2.65
2022-11-05T19:37:47.784Z,2.60
2022-11-05T19:40:17.055Z,3.40
2022-11-05T19:42:46.355Z,2.58
2022-11-05T19:45:38.360Z,3.50
2022-11-05T19:48:16.151Z,6.97
2022-11-05T19:50:48.269Z,3.63
2022-11-05T19:53:17.674Z,5.65
2022-11-05T19:55:47.298Z,4.43
2022-11-05T19:58:16.725Z,3.03
2022-11-05T20:00:46.089Z,2.90
2022-11-05T20:03:16.955Z,3.50
2022-11-05T20:05:46.242Z,4.25
2022-11-05T20:08:15.559Z,8.07
2022-11-05T20:10:44.847Z,5.25
2022-11-05T20:13:20.120Z,3.92
2022-11-05T20:15:49.901Z,6.83
2022-11-05T20:18:20.816Z,3.63
2022-11-05T20:20:55.308Z,3.67
2022-11-05T20:23:24.489Z,4.70
2022-11-05T20:25:56.033Z,5.30
2022-11-05T20:28:25.890Z,5.97
2022-11-05T20:30:57.504Z,3.60
2022-11-05T20:33:28.858Z,5.43
2022-11-05T20:36:03.481Z,3.65
2022-11-05T20:38:32.981Z,3.80
2022-11-05T20:41:07.490Z,7.47
2022-11-05T20:43:37.251Z,3.63
2022-11-05T20:46:06.961Z,5.25
2022-11-05T20:48:37.836Z,4.20
2022-11-05T20:51:10.029Z,4.13
2022-11-05T20:53:41.767Z,4.67
2022-11-05T20:56:18.188Z,3.72
2022-11-05T20:58:47.555Z,3.47
2022-11-05T21:01:17.353Z,4.45
2022-11-05T21:03:51.908Z,4.68
2022-11-05T21:06:21.391Z,4.90
2022-11-05T21:08:52.409Z,3.50
2022-11-05T21:11:22.395Z,4.57
2022-11-05T21:13:51.428Z,4.13
2022-11-05T21:16:22.071Z,4.38
2022-11-05T21:18:55.255Z,3.47
2022-11-05T21:21:24.547Z,2.30
2022-11-05T21:23:53.696Z,4.85
2022-11-05T21:26:23.003Z,2.85
2022-11-05T21:28:52.254Z,5.30
2022-11-05T21:31:21.280Z,4.53
2022-11-05T21:33:55.201Z,5.32
2022-11-05T21:36:24.786Z,3.00
2022-11-05T21:38:53.737Z,4.72
2022-11-05T21:41:22.719Z,5.05
2022-11-05T21:43:51.737Z,4.13
2022-11-05T21:46:39.007Z,4.20
2022-11-05T21:49:13.778Z,3.47
2022-11-05T21:52:06.507Z,2.42
2022-11-05T21:54:52.964Z,2.83
2022-11-05T21:57:39.293Z,2.63
2022-11-05T22:00:13.393Z,1.77
2022-11-05T22:02:45.380Z,3.28
2022-11-05T22:05:17.101Z,3.42
2022-11-05T22:07:47.214Z,3.38
2022-11-05T22:10:19.769Z,1.60
2022-11-05T22:12:50.567Z,3.80
2022-11-05T22:15:20.719Z,3.25
2022-11-05T22:17:53.192Z,2.78
2022-11-05T22:20:28.074Z,2.42
2022-11-05T22:22:58.490Z,4.90
2022-11-05T22:25:27.395Z,3.15
2022-11-05T22:27:56.144Z,2.35
2022-11-05T22:30:25.293Z,3.55
2022-11-05T22:32:54.001Z,4.40
2022-11-05T22:35:26.803Z,4.87
2022-11-05T22:37:59.289Z,3.30
2022-11-05T22:40:28.423Z,4.15
2022-11-05T22:42:57.267Z,5.03
2022-11-05T22:45:25.979Z,3.80
2022-11-05T22:47:54.641Z,3.50
2022-11-05T22:50:25.203Z,3.05
2022-11-05T22:52:58.991Z,3.55
2022-11-05T22:55:28.443Z,3.47
2022-11-05T22:57:58.840Z,3.03
2022-11-05T23:00:40.328Z,4.17
2022-11-05T23:03:09.691Z,2.03
2022-11-05T23:05:41.724Z,5.15
2022-11-05T23:08:29.073Z,2.03
2022-11-05T23:11:16.194Z,2.95
2022-11-05T23:13:46.354Z,5.07
2022-11-05T23:16:33.822Z,3.45
2022-11-05T23:19:24.741Z,2.95
2022-11-05T23:22:12.075Z,3.45
2022-11-05T23:24:40.717Z,3.75
2022-11-05T23:27:10.532Z,3.53
2022-11-05T23:29:39.234Z,2.38
2022-11-05T23:32:24.876Z,3.38
2022-11-05T23:34:54.209Z,2.10
2022-11-05T23:37:45.130Z,3.42
2022-11-05T23:40:26.355Z,3.83
2022-11-05T23:43:13.268Z,4.85
2022-11-05T23:46:01.271Z,4.18
2022-11-05T23:48:33.472Z,3.30
2022-11-05T23:51:05.672Z,3.70
2022-11-05T23:53:40.073Z,4.23
2022-11-05T23:56:11.638Z,3.72
2022-11-05T23:58:41.871Z,4.53
